Airport View

Enter ICAO identifier to see the current METAR for that AWOS.

KFNL for example

KORB 222253Z AUTO 31005KT 10SM CLR 23/08 A3009 RMK AO2

22 Jul 2014 23:17

Frequency: 118.325

Phone: 218-757-3169

Other Area AWOS: KCQM - KCDD - KFOZ - KHIB

TAF AMD KHIB 222212Z 2222/2318 34012KT P6SM FEW060 FM230200 VRB05KT P6SM SKC